»·PEaware :: KENT97 KSPS-KSPS

KENT97 :: KSPS-KSPS

FLIGHT INFORMATION

Flight Status: Arrived
Operator: Unknown
More flights by this operator :: More flights under this callsign
Pilot: 80 FTW ENJJPT (22981)
Aircraft: Unknown
(T-38)
More flights by this aircraft type
Origin: KSPS Sheppard AFB/Wichita Falls Mu
United States
Destination: KSPS Sheppard AFB/Wichita Falls Mu
United States
More flights between these airports :: More routes between these airports
Route: +FALLS SPS MIKKE SPS
File this flight plan on PilotEdge
Remarks:
Altitude:
(Current/Filed)
0ft
Speed:
(Current/Filed)
0kts
Departed: 11-Aug-20 07:50 AM
Arrived: 11-Aug-20 08:35 AM
Distance/Time
Traveled:
1nm/0:45
Distance/Time
To Go:
Arrived

Flight Plot

Page will automatically refresh every two minutes.

Flight plan parsing failed; only flown route is shown


Map Options




Map Legend


Flown Route
Filed Route
Departure Airport
Arrival Airport
Navaid (VOR, NDB)
Fix

Horizontal Profiles

Position Reports

Time Latitude Longitude Heading Altitude Ground
Speed
11-Aug-20 07:48 34.006072 -98.497346 77 1022ft 13kts
11-Aug-20 07:49 34.005882 -98.496924 160 1022ft 0kts
11-Aug-20 07:50 33.962679 -98.474750 155 2616ft 282kts
11-Aug-20 07:51 33.881407 -98.453613 205 4888ft 332kts
11-Aug-20 07:52 33.860522 -98.541375 302 5003ft 316kts
11-Aug-20 07:52 33.903009 -98.615326 306 4957ft 325kts
11-Aug-20 07:54 33.979813 -98.699252 333 5044ft 328kts
11-Aug-20 07:54 34.046601 -98.741473 333 4919ft 319kts
11-Aug-20 07:55 34.127150 -98.785216 357 4893ft 317kts
11-Aug-20 07:57 34.187635 -98.712039 71 3234ft 242kts
11-Aug-20 07:57 34.187862 -98.647575 98 2546ft 229kts
11-Aug-20 07:58 34.163641 -98.573488 135 2255ft 243kts
11-Aug-20 07:59 34.101728 -98.542323 160 2526ft 231kts
11-Aug-20 08:00 34.046002 -98.516000 158 1861ft 205kts
11-Aug-20 08:01 33.998101 -98.493307 159 1023ft 167kts
11-Aug-20 08:02 33.937666 -98.476515 239 3035ft 279kts
11-Aug-20 08:03 33.948837 -98.568661 336 4554ft 310kts
11-Aug-20 08:04 34.034018 -98.599660 26 4526ft 299kts
11-Aug-20 08:05 34.031176 -98.516692 150 4303ft 308kts
11-Aug-20 08:06 33.955895 -98.507470 258 4518ft 300kts
11-Aug-20 08:07 33.988118 -98.593881 331 4537ft 325kts
11-Aug-20 08:08 34.053038 -98.569344 91 4336ft 323kts
11-Aug-20 08:09 33.990470 -98.500523 201 4432ft 351kts
11-Aug-20 08:10 33.985960 -98.585766 328 4538ft 307kts
11-Aug-20 08:11 34.050890 -98.573702 67 4563ft 332kts
11-Aug-20 08:12 34.001824 -98.499655 158 4398ft 339kts
11-Aug-20 08:13 33.950091 -98.554244 284 4448ft 320kts
11-Aug-20 08:14 34.027125 -98.599733 18 4614ft 332kts
11-Aug-20 08:15 34.027306 -98.514068 150 4290ft 353kts
11-Aug-20 08:16 33.947263 -98.500784 235 4520ft 310kts
11-Aug-20 08:17 33.975432 -98.577668 333 4479ft 330kts
11-Aug-20 08:18 34.050316 -98.579839 68 4356ft 300kts
11-Aug-20 08:19 34.014864 -98.505209 156 4428ft 305kts
11-Aug-20 08:20 33.937315 -98.506023 244 4664ft 321kts
11-Aug-20 08:21 33.958669 -98.575099 343 4477ft 291kts
11-Aug-20 08:22 34.041343 -98.593444 38 4573ft 344kts
11-Aug-20 08:23 34.026819 -98.512284 154 4457ft 304kts
11-Aug-20 08:24 33.952644 -98.522116 244 4673ft 305kts
11-Aug-20 08:25 33.923157 -98.613207 271 3973ft 272kts
11-Aug-20 08:26 33.983455 -98.674990 338 3551ft 318kts
11-Aug-20 08:27 34.064131 -98.713724 339 3428ft 303kts
11-Aug-20 08:28 34.143473 -98.728056 31 3538ft 312kts
11-Aug-20 08:29 34.180519 -98.640198 89 2843ft 259kts
11-Aug-20 08:30 34.157534 -98.579683 144 2293ft 201kts
11-Aug-20 08:31 34.110614 -98.548258 159 2228ft 185kts
11-Aug-20 08:32 34.063712 -98.524909 159 2273ft 182kts
11-Aug-20 08:33 34.017884 -98.502829 159 1304ft 175kts
11-Aug-20 08:34 33.988684 -98.488668 228 1022ft 5kts
11-Aug-20 08:35 33.995245 -98.491804 337 1022ft 50kts
11-Aug-20 08:36 34.001319 -98.495529 295 1024ft 21kts
11-Aug-20 08:37 34.001490 -98.497312 248 1023ft 4kts
11-Aug-20 08:38 34.001435 -98.497493 248 1022ft 4kts
11-Aug-20 08:39 34.001428 -98.497514 247 1022ft 3kts
11-Aug-20 08:40 34.001428 -98.497514 247 1022ft 3kts
11-Aug-20 08:41 34.001428 -98.497514 247 1022ft 3kts
11-Aug-20 08:42 34.001428 -98.497514 247 1022ft 3kts
11-Aug-20 08:43 34.001428 -98.497514 247 1022ft 3kts
11-Aug-20 08:44 34.001428 -98.497514 247 1022ft 3kts
11-Aug-20 08:45 34.001428 -98.497514 247 1022ft 3kts
11-Aug-20 08:46 34.001428 -98.497514 247 1022ft 3kts
11-Aug-20 08:47 34.001307 -98.497788 235 1022ft 1kts
11-Aug-20 08:48 34.001260 -98.497844 213 1022ft 0kts

Navigation Log

Ident Type
Flight plan parsing failed, navigation log unavailable